createdAt,value
2018-08-28T00:00:28.123Z,13.30
2018-08-28T00:02:55.952Z,10.67
2018-08-28T00:05:23.853Z,10.63
2018-08-28T00:07:51.676Z,12.37
2018-08-28T00:10:19.540Z,11.40
2018-08-28T00:12:47.453Z,15.80
2018-08-28T00:15:15.292Z,14.40
2018-08-28T00:17:43.148Z,12.43
2018-08-28T00:20:11.040Z,11.70
2018-08-28T00:22:38.913Z,12.07
2018-08-28T00:25:06.761Z,14.70
2018-08-28T00:27:34.676Z,13.13
2018-08-28T00:30:02.484Z,10.73
2018-08-28T00:32:30.341Z,11.00
2018-08-28T00:34:58.228Z,10.47
2018-08-28T00:37:26.992Z,10.70
2018-08-28T00:39:54.901Z,10.57
2018-08-28T00:42:22.756Z,9.97
2018-08-28T00:44:51.628Z,10.80
2018-08-28T00:47:20.532Z,13.40
2018-08-28T00:49:48.384Z,17.30
2018-08-28T00:52:17.356Z,12.40
2018-08-28T00:54:45.148Z,15.00
2018-08-28T00:57:13.005Z,15.83
2018-08-28T00:59:41.916Z,13.70
2018-08-28T01:02:09.785Z,17.90
2018-08-28T01:04:37.668Z,10.87
2018-08-28T01:07:05.706Z,17.50
2018-08-28T01:09:33.579Z,10.57
2018-08-28T01:12:01.484Z,13.57
2018-08-28T01:14:29.349Z,14.57
2018-08-28T01:16:57.244Z,11.37
2018-08-28T01:19:25.092Z,13.03
2018-08-28T01:21:52.916Z,14.37
2018-08-28T01:24:20.802Z,10.73
2018-08-28T01:26:48.684Z,14.63
2018-08-28T01:29:16.503Z,13.23
2018-08-28T01:31:44.377Z,21.37
2018-08-28T01:34:12.268Z,13.57
2018-08-28T01:36:40.223Z,21.10
2018-08-28T01:39:08.545Z,11.60
2018-08-28T01:41:36.432Z,15.70
2018-08-28T01:44:04.237Z,14.90
2018-08-28T01:46:32.115Z,17.03
2018-08-28T01:48:59.955Z,17.90
2018-08-28T01:51:27.842Z,13.30
2018-08-28T01:53:55.715Z,13.90
2018-08-28T01:56:23.677Z,12.50
2018-08-28T01:58:51.548Z,15.10
2018-08-28T02:01:19.408Z,16.07
2018-08-28T02:03:48.288Z,15.73
2018-08-28T02:06:16.244Z,15.67
2018-08-28T02:08:44.140Z,14.53
2018-08-28T02:11:11.997Z,19.17
2018-08-28T02:13:39.848Z,12.30
2018-08-28T02:16:07.768Z,13.87
2018-08-28T02:18:35.592Z,18.33
2018-08-28T02:21:03.452Z,16.23
2018-08-28T02:23:31.345Z,12.60
2018-08-28T02:25:59.192Z,16.60
2018-08-28T02:28:27.105Z,17.30
2018-08-28T02:30:54.944Z,15.27
2018-08-28T02:33:23.183Z,16.40
2018-08-28T02:35:51.080Z,16.50
2018-08-28T02:38:18.956Z,16.87
2018-08-28T02:40:46.828Z,17.50
2018-08-28T02:43:15.693Z,22.60
2018-08-28T02:45:43.572Z,15.07
2018-08-28T02:48:11.449Z,14.03
2018-08-28T02:50:39.297Z,14.73
2018-08-28T02:53:07.180Z,17.93
2018-08-28T02:55:35.460Z,22.20
2018-08-28T02:58:03.340Z,18.07
2018-08-28T03:00:31.168Z,13.00
2018-08-28T03:02:59.049Z,18.50
2018-08-28T03:05:26.944Z,17.57
2018-08-28T03:07:54.769Z,16.10
2018-08-28T03:10:22.624Z,19.60
2018-08-28T03:12:50.521Z,16.10
2018-08-28T03:15:18.393Z,18.23
2018-08-28T03:17:46.244Z,16.80
2018-08-28T03:20:14.128Z,17.73
2018-08-28T03:22:41.953Z,22.80
2018-08-28T03:25:10.857Z,18.47
2018-08-28T03:27:38.732Z,15.70
2018-08-28T03:30:07.608Z,17.03
2018-08-28T03:32:35.498Z,16.20
2018-08-28T03:35:03.348Z,18.83
2018-08-28T03:37:31.196Z,21.43
2018-08-28T03:39:59.092Z,21.20
2018-08-28T03:42:26.945Z,15.43
2018-08-28T03:44:55.852Z,18.67
2018-08-28T03:47:23.691Z,18.83
2018-08-28T03:49:51.592Z,18.40
2018-08-28T03:52:19.436Z,16.53
2018-08-28T03:54:47.316Z,16.67
2018-08-28T03:57:16.209Z,18.10
2018-08-28T03:59:44.072Z,13.33
2018-08-28T04:02:11.952Z,17.47
2018-08-28T04:04:39.805Z,17.80
2018-08-28T04:07:07.653Z,15.93
2018-08-28T04:09:35.535Z,16.37
2018-08-28T04:12:03.417Z,18.00
2018-08-28T04:14:31.265Z,12.13
2018-08-28T04:16:59.172Z,14.80
2018-08-28T04:19:27.064Z,18.43
2018-08-28T04:21:54.956Z,12.30
2018-08-28T04:24:22.852Z,22.73
2018-08-28T04:26:51.729Z,14.67
2018-08-28T04:29:19.617Z,16.30
2018-08-28T04:31:47.460Z,17.63
2018-08-28T04:34:15.314Z,18.63
2018-08-28T04:36:43.196Z,19.20
2018-08-28T04:39:11.044Z,16.50
2018-08-28T04:41:38.931Z,12.97
2018-08-28T04:44:06.784Z,21.60
2018-08-28T04:46:34.686Z,17.60
2018-08-28T04:49:02.780Z,23.00
2018-08-28T04:51:30.589Z,13.07
2018-08-28T04:53:58.492Z,13.30
2018-08-28T04:56:27.000Z,14.27
2018-08-28T04:58:54.904Z,15.73
2018-08-28T05:01:22.869Z,16.90
2018-08-28T05:03:50.728Z,17.67
2018-08-28T05:06:18.685Z,12.97
2018-08-28T05:08:46.489Z,14.43
2018-08-28T05:11:14.338Z,13.20
2018-08-28T05:13:42.236Z,14.07
2018-08-28T05:16:10.208Z,13.50
2018-08-28T05:18:38.092Z,14.70
2018-08-28T05:21:05.916Z,14.70
2018-08-28T05:23:33.806Z,17.87
2018-08-28T05:26:01.700Z,12.87
2018-08-28T05:28:29.536Z,14.10
2018-08-28T05:30:57.389Z,20.00
2018-08-28T05:33:25.272Z,16.13
2018-08-28T05:35:53.124Z,14.03
2018-08-28T05:38:21.108Z,11.30
2018-08-28T05:40:48.999Z,11.20
2018-08-28T05:43:16.892Z,13.10
2018-08-28T05:45:44.774Z,16.87
2018-08-28T05:48:12.653Z,14.17
2018-08-28T05:50:40.539Z,18.60
2018-08-28T05:53:08.399Z,17.03
2018-08-28T05:55:36.312Z,14.40
2018-08-28T05:58:04.143Z,14.97
2018-08-28T06:00:31.988Z,10.80
2018-08-28T06:02:59.969Z,12.37
2018-08-28T06:05:27.727Z,15.90
2018-08-28T06:07:55.652Z,11.80
2018-08-28T06:10:23.458Z,10.30
2018-08-28T06:12:51.355Z,9.80
2018-08-28T06:15:19.216Z,11.13
2018-08-28T06:17:47.073Z,11.03
2018-08-28T06:20:16.626Z,14.60
2018-08-28T06:22:44.536Z,15.17
2018-08-28T06:25:12.391Z,15.93
2018-08-28T06:27:40.280Z,11.00
2018-08-28T06:30:08.131Z,10.77
2018-08-28T06:32:36.004Z,13.60
2018-08-28T06:35:03.996Z,19.40
2018-08-28T06:37:32.800Z,12.30
2018-08-28T06:40:00.633Z,13.93
2018-08-28T06:42:28.505Z,11.83
2018-08-28T06:44:56.400Z,11.20
2018-08-28T06:47:24.227Z,12.03
2018-08-28T06:49:52.095Z,10.10
2018-08-28T06:52:19.919Z,12.03
2018-08-28T06:54:47.824Z,14.13
2018-08-28T06:57:15.708Z,15.27
2018-08-28T06:59:43.561Z,8.10
2018-08-28T07:02:11.420Z,14.47
2018-08-28T07:04:39.300Z,13.50
2018-08-28T07:07:07.426Z,10.87
2018-08-28T07:09:35.226Z,7.70
2018-08-28T07:12:03.166Z,10.27
2018-08-28T07:14:31.052Z,11.30
2018-08-28T07:16:58.929Z,10.67
2018-08-28T07:19:26.780Z,10.03
2018-08-28T07:21:54.683Z,14.80
2018-08-28T07:24:22.545Z,6.97
2018-08-28T07:26:50.429Z,9.83
2018-08-28T07:29:18.258Z,8.53
2018-08-28T07:31:46.159Z,11.13
2018-08-28T07:34:14.021Z,10.70
2018-08-28T07:36:41.887Z,9.00
2018-08-28T07:39:09.775Z,10.50
2018-08-28T07:41:37.584Z,9.60
2018-08-28T07:44:06.494Z,8.20
2018-08-28T07:46:34.379Z,8.03
2018-08-28T07:49:02.185Z,11.13
2018-08-28T07:51:30.072Z,9.73
2018-08-28T07:53:59.263Z,10.47
2018-08-28T07:56:27.048Z,11.03
2018-08-28T07:58:54.916Z,10.17
2018-08-28T08:01:22.875Z,16.70
2018-08-28T08:03:50.676Z,9.57
2018-08-28T08:06:18.509Z,7.83
2018-08-28T08:08:46.417Z,11.50
2018-08-28T08:11:14.337Z,8.63
2018-08-28T08:13:42.201Z,9.27
2018-08-28T08:16:11.136Z,8.60
2018-08-28T08:18:38.957Z,13.23
2018-08-28T08:21:06.837Z,11.97
2018-08-28T08:23:34.716Z,10.40
2018-08-28T08:26:02.620Z,9.27
2018-08-28T08:28:30.437Z,8.13
2018-08-28T08:30:58.316Z,9.20
2018-08-28T08:33:26.213Z,7.83
2018-08-28T08:35:54.052Z,9.17
2018-08-28T08:38:21.908Z,6.60
2018-08-28T08:40:49.811Z,9.53
2018-08-28T08:43:17.661Z,6.30
2018-08-28T08:45:45.529Z,7.00
2018-08-28T08:48:13.429Z,6.17
2018-08-28T08:50:41.300Z,10.03
2018-08-28T08:53:09.113Z,7.10
2018-08-28T08:55:36.968Z,9.20
2018-08-28T08:58:04.908Z,10.00
2018-08-28T09:00:32.801Z,11.33
2018-08-28T09:03:01.697Z,9.10
2018-08-28T09:05:29.524Z,8.07
2018-08-28T09:07:57.340Z,7.53
2018-08-28T09:10:25.238Z,10.50
2018-08-28T09:12:53.121Z,7.33
2018-08-28T09:15:20.939Z,13.97
2018-08-28T09:17:48.805Z,6.90
2018-08-28T09:20:16.682Z,7.30
2018-08-28T09:22:44.541Z,7.17
2018-08-28T09:25:12.440Z,6.40
2018-08-28T09:27:40.289Z,8.93
2018-08-28T09:30:08.416Z,8.07
2018-08-28T09:32:36.367Z,11.70
2018-08-28T09:35:04.441Z,8.50
2018-08-28T09:37:32.297Z,8.57
2018-08-28T09:40:00.112Z,8.17
2018-08-28T09:42:27.996Z,8.40
2018-08-28T09:44:55.848Z,7.53
2018-08-28T09:47:23.762Z,7.83
2018-08-28T09:49:51.589Z,9.53
2018-08-28T09:52:19.453Z,9.47
2018-08-28T09:54:47.338Z,7.90
2018-08-28T09:57:15.183Z,10.40
2018-08-28T09:59:43.076Z,11.13
2018-08-28T10:02:10.917Z,11.27
2018-08-28T10:04:38.871Z,6.53
2018-08-28T10:07:06.680Z,7.27
2018-08-28T10:09:34.528Z,7.20
2018-08-28T10:12:02.415Z,6.77
2018-08-28T10:14:30.255Z,9.80
2018-08-28T10:16:58.160Z,8.77
2018-08-28T10:19:26.013Z,7.07
2018-08-28T10:21:53.879Z,8.20
2018-08-28T10:24:21.818Z,13.37
2018-08-28T10:26:49.761Z,8.10
2018-08-28T10:29:17.730Z,6.47
2018-08-28T10:31:45.658Z,8.70
2018-08-28T10:34:13.566Z,8.33
2018-08-28T10:36:41.486Z,8.70
2018-08-28T10:39:09.862Z,7.57
2018-08-28T10:41:37.806Z,8.20
2018-08-28T10:44:05.744Z,10.73
2018-08-28T10:46:33.825Z,8.77
2018-08-28T10:49:01.664Z,8.30
2018-08-28T10:51:29.595Z,8.13
2018-08-28T10:53:57.441Z,8.20
2018-08-28T10:56:25.300Z,8.27
2018-08-28T10:58:54.222Z,7.70
2018-08-28T11:01:22.125Z,9.17
2018-08-28T11:03:49.964Z,11.03
2018-08-28T11:06:17.798Z,9.90
2018-08-28T11:08:45.733Z,10.17
2018-08-28T11:11:13.717Z,9.20
2018-08-28T11:13:41.675Z,10.07
2018-08-28T11:16:09.665Z,10.60
2018-08-28T11:18:37.575Z,8.40
2018-08-28T11:21:05.489Z,10.90
2018-08-28T11:23:33.454Z,6.67
2018-08-28T11:26:01.343Z,8.67
2018-08-28T11:28:29.283Z,8.77
2018-08-28T11:30:57.186Z,7.83
2018-08-28T11:33:25.105Z,8.37
2018-08-28T11:35:52.961Z,7.33
2018-08-28T11:38:20.870Z,9.80
2018-08-28T11:40:48.803Z,8.90
2018-08-28T11:43:17.640Z,9.00
2018-08-28T11:45:45.546Z,9.47
2018-08-28T11:48:13.480Z,10.80
2018-08-28T11:50:41.427Z,8.27
2018-08-28T11:53:10.320Z,8.73
2018-08-28T11:55:38.206Z,6.50
2018-08-28T11:58:06.358Z,10.40
2018-08-28T12:00:34.278Z,9.37
2018-08-28T12:03:02.194Z,8.90
2018-08-28T12:05:30.235Z,6.23
2018-08-28T12:07:58.089Z,9.90
2018-08-28T12:10:25.957Z,11.53
2018-08-28T12:12:53.866Z,8.07
2018-08-28T12:15:21.686Z,7.67
2018-08-28T12:17:49.597Z,6.90
2018-08-28T12:20:17.487Z,8.60
2018-08-28T12:22:45.400Z,12.80
2018-08-28T12:25:13.323Z,8.13
2018-08-28T12:27:41.201Z,8.53
2018-08-28T12:30:10.210Z,10.77
2018-08-28T12:32:38.072Z,9.43
2018-08-28T12:35:06.092Z,10.27
2018-08-28T12:37:34.093Z,9.83
2018-08-28T12:40:01.987Z,7.97
2018-08-28T12:42:30.204Z,6.80
2018-08-28T12:44:58.173Z,7.53
2018-08-28T12:47:26.059Z,10.60
2018-08-28T12:49:54.005Z,12.10
2018-08-28T12:52:21.839Z,7.30
2018-08-28T12:54:49.840Z,9.07
2018-08-28T12:57:17.837Z,11.23
2018-08-28T12:59:45.738Z,8.90
2018-08-28T13:02:13.710Z,8.77
2018-08-28T13:04:41.593Z,11.83
2018-08-28T13:07:09.484Z,8.30
2018-08-28T13:09:37.484Z,8.70
2018-08-28T13:12:05.414Z,7.47
2018-08-28T13:14:33.361Z,9.93
2018-08-28T13:17:01.283Z,7.73
2018-08-28T13:19:29.194Z,7.17
2018-08-28T13:21:57.118Z,10.20
2018-08-28T13:24:25.097Z,11.77
2018-08-28T13:26:53.025Z,11.60
2018-08-28T13:29:20.943Z,5.90
2018-08-28T13:31:48.842Z,7.97
2018-08-28T13:34:16.733Z,7.43
2018-08-28T13:36:44.615Z,9.23
2018-08-28T13:39:12.533Z,9.00
2018-08-28T13:41:40.413Z,6.80
2018-08-28T13:44:08.307Z,9.50
2018-08-28T13:46:36.162Z,8.20
2018-08-28T13:49:04.221Z,10.47
2018-08-28T13:51:32.068Z,9.17
2018-08-28T13:53:59.947Z,7.93
2018-08-28T13:56:27.833Z,10.30
2018-08-28T13:58:55.654Z,8.80
2018-08-28T14:01:23.658Z,10.87
2018-08-28T14:03:51.525Z,7.97
2018-08-28T14:06:19.422Z,9.03
2018-08-28T14:08:47.348Z,6.20
2018-08-28T14:11:15.257Z,8.50
2018-08-28T14:13:43.216Z,10.50
2018-08-28T14:16:12.090Z,8.80
2018-08-28T14:18:39.948Z,9.50
2018-08-28T14:21:07.942Z,11.47
2018-08-28T14:23:35.785Z,9.03
2018-08-28T14:26:03.702Z,6.97
2018-08-28T14:28:31.650Z,10.20
2018-08-28T14:30:59.557Z,7.90
2018-08-28T14:33:27.477Z,8.90
2018-08-28T14:35:55.321Z,8.03
2018-08-28T14:38:23.193Z,8.03
2018-08-28T14:40:51.143Z,8.77
2018-08-28T14:43:19.056Z,7.87
2018-08-28T14:45:46.964Z,15.80
2018-08-28T14:48:15.118Z,10.73
2018-08-28T14:50:43.083Z,7.37
2018-08-28T14:53:11.403Z,11.67
2018-08-28T14:55:39.339Z,7.87
2018-08-28T14:58:07.188Z,13.77
2018-08-28T15:00:35.142Z,8.80
2018-08-28T15:03:03.051Z,8.10
2018-08-28T15:05:30.974Z,10.90
2018-08-28T15:07:58.902Z,11.10
2018-08-28T15:10:26.856Z,10.03
2018-08-28T15:12:54.748Z,9.93
2018-08-28T15:15:22.660Z,8.13
2018-08-28T15:17:50.584Z,9.80
2018-08-28T15:20:18.415Z,7.50
2018-08-28T15:22:46.342Z,9.83
2018-08-28T15:25:14.215Z,8.77
2018-08-28T15:27:42.038Z,10.17
2018-08-28T15:30:10.019Z,9.10
2018-08-28T15:32:37.937Z,8.70
2018-08-28T15:35:05.776Z,8.07
2018-08-28T15:37:33.646Z,10.87
2018-08-28T15:40:01.566Z,11.70
2018-08-28T15:42:29.486Z,8.57
2018-08-28T15:44:57.366Z,7.23
2018-08-28T15:47:25.310Z,8.80
2018-08-28T15:49:53.172Z,8.03
2018-08-28T15:52:21.095Z,8.53
2018-08-28T15:54:49.050Z,8.80
2018-08-28T15:57:16.984Z,7.63
2018-08-28T15:59:44.933Z,9.57
2018-08-28T16:02:12.834Z,12.90
2018-08-28T16:04:40.755Z,9.80
2018-08-28T16:09:35.656Z,8.80
2018-08-28T16:14:30.614Z,11.57
2018-08-28T16:24:23.733Z,12.60
2018-08-28T16:29:19.258Z,14.70
2018-08-28T16:34:14.328Z,10.00
2018-08-28T16:36:42.245Z,9.80
2018-08-28T16:39:10.487Z,11.57
2018-08-28T16:41:38.567Z,10.00
2018-08-28T16:44:06.803Z,10.47
2018-08-28T16:46:35.048Z,12.00
2018-08-28T16:49:03.019Z,7.70
2018-08-28T16:51:30.879Z,11.90
2018-08-28T16:53:58.831Z,10.57
2018-08-28T16:56:26.695Z,12.43
2018-08-28T16:58:54.582Z,10.37
2018-08-28T17:01:22.562Z,8.43
2018-08-28T17:03:50.395Z,8.60
2018-08-28T17:06:18.232Z,7.40
2018-08-28T17:08:46.986Z,11.73
2018-08-28T17:11:15.857Z,10.20
2018-08-28T17:13:43.746Z,11.43
2018-08-28T17:16:11.669Z,12.67
2018-08-28T17:18:39.525Z,13.53
2018-08-28T17:21:08.257Z,14.20
2018-08-28T17:23:36.141Z,11.90
2018-08-28T17:26:04.928Z,14.40
2018-08-28T17:28:33.863Z,13.73
2018-08-28T17:31:01.749Z,17.17
2018-08-28T17:33:29.611Z,15.63
2018-08-28T17:35:57.466Z,9.73
2018-08-28T17:38:25.346Z,9.50
2018-08-28T17:40:53.278Z,16.03
2018-08-28T17:43:21.254Z,9.57
2018-08-28T17:45:49.059Z,12.67
2018-08-28T17:48:16.954Z,12.43
2018-08-28T17:50:44.943Z,9.90
2018-08-28T17:53:12.845Z,10.03
2018-08-28T17:55:40.722Z,8.50
2018-08-28T17:58:08.621Z,9.20
2018-08-28T18:03:03.671Z,9.80
2018-08-28T18:10:25.751Z,16.35
2018-08-28T18:15:20.738Z,13.80
2018-08-28T18:17:48.653Z,14.33
2018-08-28T18:20:16.559Z,9.90
2018-08-28T18:22:44.497Z,12.60
2018-08-28T18:25:12.412Z,15.00
2018-08-28T18:27:40.318Z,14.30
2018-08-28T18:30:08.588Z,12.77
2018-08-28T18:32:36.769Z,9.80
2018-08-28T18:35:04.714Z,13.43
2018-08-28T18:37:32.609Z,11.40
2018-08-28T18:40:00.506Z,10.20
2018-08-28T18:42:28.561Z,13.30
2018-08-28T18:44:56.451Z,12.60
2018-08-28T18:47:24.430Z,11.00
2018-08-28T18:49:52.380Z,16.87
2018-08-28T18:52:20.375Z,11.60
2018-08-28T18:54:48.341Z,16.43
2018-08-28T18:57:16.315Z,11.93
2018-08-28T18:59:44.185Z,14.37
2018-08-28T19:02:12.991Z,14.97
2018-08-28T19:04:40.981Z,16.80
2018-08-28T19:07:08.928Z,12.07
2018-08-28T19:09:36.818Z,13.30
2018-08-28T19:12:04.742Z,10.60
2018-08-28T19:14:32.793Z,11.00
2018-08-28T19:17:00.925Z,12.17
2018-08-28T19:19:28.859Z,15.30
2018-08-28T19:21:56.781Z,14.40
2018-08-28T19:24:24.720Z,16.10
2018-08-28T19:26:52.623Z,18.23
2018-08-28T19:29:20.663Z,14.03
2018-08-28T19:31:48.619Z,12.23
2018-08-28T19:34:16.558Z,15.90
2018-08-28T19:36:44.556Z,20.37
2018-08-28T19:39:12.461Z,13.80
2018-08-28T19:41:40.351Z,12.33
2018-08-28T19:44:08.418Z,10.63
2018-08-28T19:46:36.253Z,13.53
2018-08-28T19:49:04.145Z,14.07
2018-08-28T19:51:32.134Z,11.50
2018-08-28T19:54:00.950Z,13.30
2018-08-28T19:56:29.198Z,13.07
2018-08-28T19:58:57.593Z,12.43
2018-08-28T20:01:25.610Z,17.63
2018-08-28T20:03:53.553Z,16.13
2018-08-28T20:06:21.428Z,11.80
2018-08-28T20:08:49.357Z,15.00
2018-08-28T20:11:18.243Z,11.27
2018-08-28T20:13:46.130Z,18.93
2018-08-28T20:16:14.247Z,19.37
2018-08-28T20:18:42.105Z,16.37
2018-08-28T20:21:10.044Z,16.40
2018-08-28T20:23:37.950Z,14.10
2018-08-28T20:26:05.930Z,19.67
2018-08-28T20:28:33.949Z,12.83
2018-08-28T20:31:01.938Z,11.70
2018-08-28T20:33:29.856Z,14.30
2018-08-28T20:35:58.742Z,14.60
2018-08-28T20:38:26.680Z,14.07
2018-08-28T20:40:54.524Z,17.00
2018-08-28T20:43:22.413Z,16.50
2018-08-28T20:47:58.605Z,15.73
2018-08-28T20:50:26.481Z,17.67
2018-08-28T20:52:54.345Z,16.43
2018-08-28T20:55:22.198Z,15.37
2018-08-28T20:57:50.093Z,15.07
2018-08-28T21:00:18.033Z,18.80
2018-08-28T21:02:45.994Z,15.27
2018-08-28T21:05:13.850Z,17.17
2018-08-28T21:07:41.769Z,12.23
2018-08-28T21:10:09.673Z,16.80
2018-08-28T21:12:37.609Z,16.20
2018-08-28T21:15:05.461Z,19.43
2018-08-28T21:17:33.438Z,16.35
2018-08-28T21:20:01.753Z,16.40
2018-08-28T21:22:29.653Z,16.30
2018-08-28T21:24:57.542Z,18.43
2018-08-28T21:27:25.526Z,21.80
2018-08-28T21:29:53.467Z,22.70
2018-08-28T21:32:21.317Z,22.10
2018-08-28T21:34:49.218Z,14.90
2018-08-28T21:37:17.186Z,21.87
2018-08-28T21:39:46.068Z,16.67
2018-08-28T21:45:02.146Z,18.97
2018-08-28T21:47:30.021Z,16.23
2018-08-28T21:49:57.993Z,15.47
2018-08-28T21:52:26.241Z,21.57
2018-08-28T21:54:54.119Z,22.33
2018-08-28T21:57:22.096Z,21.60
2018-08-28T21:59:50.007Z,18.07
2018-08-28T22:02:18.014Z,17.10
2018-08-28T22:04:45.925Z,18.60
2018-08-28T22:07:19.186Z,17.50
2018-08-28T22:09:47.098Z,12.43
2018-08-28T22:12:15.097Z,21.00
2018-08-28T22:14:42.985Z,15.97
2018-08-28T22:17:10.896Z,15.90
2018-08-28T22:19:38.787Z,16.30
2018-08-28T22:22:07.731Z,22.73
2018-08-28T22:24:35.560Z,16.30
2018-08-28T22:27:03.462Z,17.07
2018-08-28T22:29:31.398Z,14.53
2018-08-28T22:31:59.277Z,18.83
2018-08-28T22:34:27.224Z,17.77
2018-08-28T22:36:55.181Z,20.43
2018-08-28T22:39:24.013Z,16.10
2018-08-28T22:41:51.985Z,16.00
2018-08-28T22:44:19.865Z,18.33
2018-08-28T22:46:47.789Z,20.50
2018-08-28T22:49:16.600Z,16.50
2018-08-28T22:51:44.461Z,16.10
2018-08-28T22:54:12.443Z,17.10
2018-08-28T22:56:40.350Z,16.63
2018-08-28T22:59:08.219Z,20.33
2018-08-28T23:01:36.150Z,17.13
2018-08-28T23:04:04.089Z,18.83
2018-08-28T23:06:32.052Z,19.60
2018-08-28T23:09:01.003Z,14.50
2018-08-28T23:11:28.895Z,18.53
2018-08-28T23:13:56.807Z,14.47
2018-08-28T23:16:24.702Z,19.83
2018-08-28T23:18:52.546Z,16.20
2018-08-28T23:21:20.479Z,17.87
2018-08-28T23:23:48.421Z,17.00
2018-08-28T23:26:16.287Z,18.93
2018-08-28T23:28:44.178Z,15.07
2018-08-28T23:31:12.113Z,20.10
2018-08-28T23:33:39.986Z,18.17
2018-08-28T23:36:08.870Z,15.87
2018-08-28T23:38:36.713Z,15.37
2018-08-28T23:41:04.586Z,20.70
2018-08-28T23:43:32.479Z,15.03
2018-08-28T23:46:00.342Z,17.53
2018-08-28T23:48:28.222Z,18.43
2018-08-28T23:50:56.177Z,16.60
2018-08-28T23:53:23.994Z,17.10
2018-08-28T23:55:51.853Z,13.43
2018-08-28T23:58:19.770Z,16.40
